Time;durP1;ratioP1;P1;durP2;ratioP2;P2;SDS_P1;SDS_P2;PMS_P1;PMS_P2;Temp;Humidity;BMP_temperature;BMP_pressure;BME280_temperature;BME280_humidity;BME280_pressure;Samples;Min_cycle;Max_cycle;Signal;HPM_P1;HPM_P2
2022/12/25 00:01:32;;;;;;;31.60;20.33;;;5.50;99.90;;;;;;4993523;28;20453;-77
2022/12/25 00:04:01;;;;;;;32.23;18.43;;;5.50;99.90;;;;;;4994701;28;20448;-77
2022/12/25 00:06:30;;;;;;;28.50;19.17;;;5.50;99.90;;;;;;4994762;28;20515;-77
2022/12/25 00:08:58;;;;;;;29.33;20.13;;;5.50;99.90;;;;;;4993589;28;20539;-77
2022/12/25 00:11:27;;;;;;;35.40;21.40;;;5.50;99.90;;;;;;4994851;28;20863;-77
2022/12/25 00:13:55;;;;;;;44.50;19.63;;;5.50;99.90;;;;;;4993259;28;21039;-77
2022/12/25 00:16:25;;;;;;;40.33;20.17;;;5.60;99.90;;;;;;4994935;28;20461;-77
2022/12/25 00:18:57;;;;;;;34.33;21.00;;;5.60;99.90;;;;;;4994926;28;20468;-77
2022/12/25 00:21:27;;;;;;;34.07;19.53;;;5.60;99.90;;;;;;4994181;28;20449;-78
2022/12/25 00:23:58;;;;;;;31.93;21.13;;;5.60;99.90;;;;;;4992727;28;20448;-76
2022/12/25 00:26:28;;;;;;;30.10;19.60;;;5.60;99.90;;;;;;4994101;28;20528;-76
2022/12/25 00:28:57;;;;;;;35.40;20.63;;;5.60;99.90;;;;;;4992755;28;20817;-76
2022/12/25 00:31:26;;;;;;;30.57;19.80;;;5.60;99.90;;;;;;4994254;28;20475;-76
2022/12/25 00:33:54;;;;;;;34.27;21.73;;;5.60;99.90;;;;;;4995406;28;20548;-78
2022/12/25 00:36:23;;;;;;;40.10;21.80;;;5.60;99.90;;;;;;4997318;28;20456;-77
2022/12/25 00:38:51;;;;;;;42.33;21.03;;;5.60;99.90;;;;;;4993463;28;20886;-75
2022/12/25 00:42:17;;;;;;;39.03;21.50;;;5.60;99.90;;;;;;4992764;28;20445;-78
2022/12/25 00:44:13;;;;;;;43.27;21.37;;;5.60;99.90;;;;;;4994440;28;20801;-76
2022/12/25 00:46:42;;;;;;;33.23;20.70;;;5.60;99.90;;;;;;4994342;28;20445;-76
2022/12/25 00:49:11;;;;;;;44.50;22.63;;;5.60;99.90;;;;;;4992616;28;20465;-76
2022/12/25 00:51:39;;;;;;;35.97;20.77;;;5.60;99.90;;;;;;4992787;28;20447;-76
2022/12/25 00:54:07;;;;;;;35.13;20.07;;;5.60;99.90;;;;;;4994357;28;20844;-76
2022/12/25 00:56:37;;;;;;;38.43;21.67;;;5.60;99.90;;;;;;4993935;28;20433;-76
2022/12/25 00:59:05;;;;;;;43.27;23.30;;;5.60;99.90;;;;;;4994560;28;20448;-78
2022/12/25 01:01:34;;;;;;;34.97;21.23;;;5.50;99.90;;;;;;4996742;28;20465;-78
2022/12/25 01:04:02;;;;;;;41.33;21.43;;;5.50;99.90;;;;;;4997981;28;20552;-76
2022/12/25 01:06:30;;;;;;;30.73;20.87;;;5.50;99.90;;;;;;4995793;28;20479;-76
2022/12/25 01:11:46;;;;;;;32.83;20.63;;;5.50;99.90;;;;;;4998762;28;20441;-77
2022/12/25 01:14:15;;;;;;;39.33;23.80;;;5.40;99.90;;;;;;4996952;28;20516;-78
2022/12/25 01:16:43;;;;;;;36.40;21.23;;;5.40;99.90;;;;;;4996357;28;20456;-77
2022/12/25 01:19:11;;;;;;;35.67;22.40;;;5.40;99.90;;;;;;4996424;28;20511;-77
2022/12/25 01:21:40;;;;;;;35.43;21.40;;;5.40;99.90;;;;;;4998139;28;20527;-77
2022/12/25 01:24:08;;;;;;;37.53;22.10;;;5.40;99.90;;;;;;4995995;28;20452;-77
2022/12/25 01:26:36;;;;;;;39.33;22.90;;;5.40;99.90;;;;;;4997587;28;20445;-77
2022/12/25 01:29:07;;;;;;;35.00;22.37;;;5.40;99.90;;;;;;4997461;28;20503;-77
2022/12/25 01:31:35;;;;;;;41.47;24.37;;;5.30;99.90;;;;;;4996309;28;20455;-77
2022/12/25 01:34:03;;;;;;;32.47;22.60;;;5.30;99.90;;;;;;4996308;28;20453;-77
2022/12/25 01:36:31;;;;;;;42.60;25.37;;;5.30;99.90;;;;;;4996140;28;20472;-77
2022/12/25 01:39:00;;;;;;;33.73;22.43;;;5.30;99.90;;;;;;4996312;28;20964;-78
2022/12/25 01:41:28;;;;;;;38.43;23.40;;;5.30;99.90;;;;;;4996056;28;20444;-77
2022/12/25 01:44:02;;;;;;;39.50;21.47;;;5.20;99.90;;;;;;4996202;28;20503;-77
2022/12/25 01:46:33;;;;;;;39.10;23.90;;;5.20;99.90;;;;;;4995922;28;20478;-77
2022/12/25 01:49:04;;;;;;;32.20;21.30;;;5.20;99.90;;;;;;4996248;28;20456;-77
2022/12/25 01:51:38;;;;;;;37.67;20.90;;;5.20;99.90;;;;;;4995837;28;20892;-77
2022/12/25 01:54:10;;;;;;;33.37;21.60;;;5.20;99.90;;;;;;4997706;28;20432;-77
2022/12/25 01:56:41;;;;;;;40.90;23.53;;;5.20;99.90;;;;;;4997827;28;20425;-77
2022/12/25 01:59:10;;;;;;;32.80;20.30;;;5.20;99.90;;;;;;4997386;28;20426;-77
2022/12/25 02:01:40;;;;;;;35.17;21.13;;;5.10;99.90;;;;;;4995856;28;20449;-77
2022/12/25 02:04:15;;;;;;;35.30;21.57;;;5.10;99.90;;;;;;4997437;28;20445;-78
2022/12/25 02:06:43;;;;;;;39.93;22.27;;;5.10;99.90;;;;;;4996829;28;20543;-78
2022/12/25 02:09:13;;;;;;;34.63;21.47;;;5.10;99.90;;;;;;4998657;28;20560;-77
2022/12/25 02:14:30;;;;;;;35.23;21.43;;;5.10;99.90;;;;;;4995783;28;20503;-77
2022/12/25 02:17:07;;;;;;;38.93;23.00;;;5.10;99.90;;;;;;4995769;28;20476;-76
2022/12/25 02:20:02;;;;;;;35.47;22.50;;;5.00;99.90;;;;;;4995479;28;20441;-77
2022/12/25 02:22:44;;;;;;;36.17;21.47;;;5.00;99.90;;;;;;4996016;28;20487;-78
2022/12/25 02:25:30;;;;;;;32.67;21.10;;;5.00;99.90;;;;;;4995966;28;20515;-77
2022/12/25 02:28:12;;;;;;;35.37;21.93;;;5.00;99.90;;;;;;4995168;28;21032;-77
2022/12/25 02:30:43;;;;;;;37.47;21.07;;;5.00;99.90;;;;;;4995152;28;20560;-77
2022/12/25 02:36:07;;;;;;;34.60;22.27;;;4.90;99.90;;;;;;4995055;28;20795;-77
2022/12/25 02:39:56;;;;;;;32.87;20.73;;;4.90;99.90;;;;;;4995155;28;20445;-77
2022/12/25 02:41:29;;;;;;;43.10;23.50;;;4.90;99.90;;;;;;4994622;28;20958;-77
2022/12/25 03:06:45;;;;;;;34.27;22.30;;;4.90;99.90;;;;;;4997626;28;20468;-77
2022/12/25 03:12:17;;;;;;;37.83;22.40;;;4.90;99.90;;;;;;4993607;28;20503;-77
2022/12/25 03:17:31;;;;;;;38.07;23.57;;;4.90;99.90;;;;;;4965144;28;20476;-78
2022/12/25 03:28:18;;;;;;;33.70;21.83;;;4.90;99.90;;;;;;4996228;28;20880;-77
2022/12/25 03:31:11;;;;;;;33.87;22.33;;;4.90;99.90;;;;;;4994151;28;20477;-77
2022/12/25 03:36:45;;;;;;;39.90;22.27;;;4.90;99.90;;;;;;4993798;28;20478;-77
2022/12/25 04:38:02;;;;;;;43.10;23.73;;;4.70;99.90;;;;;;4998945;28;20437;-77
2022/12/25 04:40:31;;;;;;;38.27;22.70;;;4.70;99.90;;;;;;4996984;28;20441;-77
2022/12/25 04:43:00;;;;;;;44.40;23.90;;;4.70;99.90;;;;;;4998986;28;20459;-77
2022/12/25 04:45:28;;;;;;;30.40;21.33;;;4.70;99.90;;;;;;4997489;28;20476;-77
2022/12/25 04:47:58;;;;;;;35.97;22.70;;;4.70;99.90;;;;;;4996975;28;20456;-77
2022/12/25 04:50:27;;;;;;;40.73;23.03;;;4.70;99.90;;;;;;4998735;28;20451;-78
2022/12/25 04:52:55;;;;;;;36.53;22.83;;;4.70;99.90;;;;;;4998711;28;20514;-77
2022/12/25 04:55:23;;;;;;;43.27;25.10;;;4.70;99.90;;;;;;4997043;28;20479;-77
2022/12/25 04:57:52;;;;;;;42.93;22.17;;;4.70;99.90;;;;;;4997039;28;20945;-77
2022/12/25 05:00:20;;;;;;;32.60;21.03;;;4.70;99.90;;;;;;4997248;28;20453;-78
2022/12/25 05:02:49;;;;;;;34.53;22.50;;;4.70;99.90;;;;;;4997281;28;20495;-77
2022/12/25 05:05:17;;;;;;;39.77;22.03;;;4.70;99.90;;;;;;4996757;28;20481;-77
2022/12/25 05:07:45;;;;;;;42.70;23.07;;;4.70;99.90;;;;;;4998221;28;20468;-78
2022/12/25 05:10:14;;;;;;;41.37;22.90;;;4.70;99.90;;;;;;5001624;28;20452;-78
2022/12/25 05:12:42;;;;;;;33.63;23.07;;;4.70;99.90;;;;;;5001637;28;20512;-78
2022/12/25 05:15:12;;;;;;;39.77;22.57;;;4.70;99.90;;;;;;5000290;28;20522;-78
2022/12/25 05:17:40;;;;;;;42.13;23.00;;;4.70;99.90;;;;;;4999762;28;20454;-78
2022/12/25 05:20:08;;;;;;;40.73;23.67;;;4.70;99.90;;;;;;4998631;28;20449;-78
2022/12/25 05:22:37;;;;;;;42.20;23.40;;;4.70;99.90;;;;;;4998067;28;20950;-78
2022/12/25 05:25:06;;;;;;;35.77;21.70;;;4.70;99.90;;;;;;4997365;28;20519;-78
2022/12/25 05:27:34;;;;;;;42.53;24.40;;;4.70;99.90;;;;;;4998794;28;20467;-78
2022/12/25 05:30:03;;;;;;;41.10;24.77;;;4.70;99.90;;;;;;4997742;28;20499;-78
2022/12/25 05:32:33;;;;;;;39.20;22.90;;;4.70;99.90;;;;;;4997508;28;21005;-78
2022/12/25 05:35:01;;;;;;;36.23;24.50;;;4.80;99.90;;;;;;4997501;28;20461;-77
2022/12/25 05:37:29;;;;;;;39.00;24.00;;;4.80;99.90;;;;;;4998499;28;20433;-78
2022/12/25 05:39:58;;;;;;;39.10;26.33;;;4.80;99.90;;;;;;4997370;28;21009;-78
2022/12/25 05:42:26;;;;;;;35.33;24.30;;;4.90;99.90;;;;;;4997001;28;20441;-78
2022/12/25 05:44:54;;;;;;;37.30;24.47;;;4.90;99.90;;;;;;4996455;28;20994;-78
2022/12/25 05:47:22;;;;;;;37.07;22.80;;;5.10;99.90;;;;;;4997152;28;20491;-77
2022/12/25 05:49:52;;;;;;;41.00;24.93;;;5.00;99.90;;;;;;4998432;28;20439;-78
2022/12/25 05:52:20;;;;;;;39.70;24.20;;;5.00;99.90;;;;;;4998464;28;20495;-78
2022/12/25 05:54:48;;;;;;;43.37;24.53;;;5.00;99.90;;;;;;4997439;28;20460;-77
2022/12/25 05:57:16;;;;;;;35.70;23.20;;;5.00;99.90;;;;;;4996357;28;20448;-77
2022/12/25 05:59:44;;;;;;;45.03;23.80;;;5.10;99.90;;;;;;4995907;28;20476;-77
2022/12/25 06:02:12;;;;;;;37.80;22.23;;;5.10;99.90;;;;;;4995978;28;20511;-78
2022/12/25 06:04:41;;;;;;;41.83;23.40;;;5.10;99.90;;;;;;4997508;28;20499;-77
2022/12/25 06:07:11;;;;;;;38.20;24.43;;;5.10;99.90;;;;;;4997650;28;20918;-77
2022/12/25 06:09:39;;;;;;;43.10;24.50;;;5.10;99.90;;;;;;4996798;28;20440;-77
2022/12/25 06:12:08;;;;;;;37.27;22.83;;;5.20;99.90;;;;;;4995147;28;20994;-77
2022/12/25 06:14:36;;;;;;;35.67;22.97;;;5.20;99.90;;;;;;4995631;28;20472;-77
2022/12/25 06:17:04;;;;;;;32.23;21.30;;;5.20;99.90;;;;;;4996141;28;20449;-77
2022/12/25 06:19:33;;;;;;;43.50;21.87;;;5.30;99.90;;;;;;4996064;28;20855;-77
2022/12/25 06:22:01;;;;;;;35.67;21.23;;;5.30;99.90;;;;;;4995312;28;20843;-77
2022/12/25 06:24:31;;;;;;;35.00;22.80;;;5.30;99.90;;;;;;4996678;28;20464;-78
2022/12/25 06:26:59;;;;;;;37.50;23.30;;;5.30;99.90;;;;;;4996744;28;20473;-78
2022/12/25 06:29:27;;;;;;;37.73;23.97;;;5.40;99.90;;;;;;4995329;28;20525;-77
2022/12/25 06:31:56;;;;;;;35.80;22.57;;;5.40;99.90;;;;;;4996196;28;20552;-77
2022/12/25 06:34:24;;;;;;;38.60;21.63;;;5.40;99.90;;;;;;4996526;28;20512;-77
2022/12/25 06:36:53;;;;;;;41.10;25.07;;;5.50;99.90;;;;;;4996467;28;20491;-77
2022/12/25 06:39:24;;;;;;;41.40;26.63;;;5.50;99.90;;;;;;4996660;28;20786;-77
2022/12/25 06:41:54;;;;;;;33.00;22.10;;;5.50;99.90;;;;;;4995237;28;20450;-78
2022/12/25 06:44:22;;;;;;;36.37;24.70;;;5.60;99.90;;;;;;4996828;28;20512;-78
2022/12/25 06:46:52;;;;;;;39.77;27.20;;;5.60;99.90;;;;;;4995540;28;20453;-77
2022/12/25 06:49:21;;;;;;;33.10;22.43;;;5.60;99.90;;;;;;4995298;28;20457;-77
2022/12/25 06:51:49;;;;;;;31.63;21.03;;;5.60;99.90;;;;;;4994905;28;20584;-77
2022/12/25 06:54:17;;;;;;;34.20;21.00;;;5.70;99.90;;;;;;4996148;28;20444;-78
2022/12/25 06:56:45;;;;;;;33.43;20.40;;;5.70;99.90;;;;;;4995241;28;20472;-78
2022/12/25 06:59:15;;;;;;;37.57;21.93;;;5.70;99.90;;;;;;4997219;28;20449;-78
2022/12/25 07:01:46;;;;;;;43.33;24.40;;;5.70;99.90;;;;;;4997196;28;20436;-78
2022/12/25 07:04:19;;;;;;;55.63;36.80;;;5.80;99.90;;;;;;4995210;28;20445;-78
2022/12/25 07:06:47;;;;;;;34.20;24.83;;;5.80;99.90;;;;;;4996326;28;20437;-78
2022/12/25 07:09:15;;;;;;;37.23;23.60;;;5.80;99.90;;;;;;4998149;28;20437;-77
2022/12/25 07:11:44;;;;;;;37.83;20.37;;;5.80;99.90;;;;;;4995931;28;20460;-78
2022/12/25 07:14:18;;;;;;;42.00;26.13;;;5.90;99.90;;;;;;4994804;28;20453;-78
2022/12/25 07:16:51;;;;;;;35.73;22.00;;;5.90;99.90;;;;;;4996757;28;20512;-77
2022/12/25 07:19:19;;;;;;;36.03;19.70;;;6.00;99.90;;;;;;4996023;28;20456;-78
2022/12/25 07:21:48;;;;;;;34.83;23.70;;;6.00;99.90;;;;;;4997493;28;20475;-78
2022/12/25 07:24:19;;;;;;;31.40;19.33;;;6.00;99.90;;;;;;4996284;28;20836;-78
2022/12/25 07:26:47;;;;;;;34.93;19.17;;;6.00;99.90;;;;;;4995888;28;20461;-78
2022/12/25 07:29:18;;;;;;;31.93;18.50;;;6.10;99.90;;;;;;4996903;28;20457;-78
2022/12/25 07:31:46;;;;;;;29.33;18.60;;;6.10;99.90;;;;;;4994434;28;20463;-77
2022/12/25 07:34:17;;;;;;;32.00;19.30;;;6.20;99.90;;;;;;4994259;28;20468;-78
2022/12/25 07:36:45;;;;;;;34.80;22.47;;;6.20;99.90;;;;;;4994052;28;20449;-77
2022/12/25 07:39:15;;;;;;;40.50;27.33;;;6.20;99.90;;;;;;4994387;28;20449;-77
2022/12/25 07:41:43;;;;;;;32.53;20.90;;;6.20;99.90;;;;;;4994185;28;20536;-78
2022/12/25 07:44:16;;;;;;;23.20;18.73;;;6.30;99.90;;;;;;4994469;28;20860;-78
2022/12/25 07:46:44;;;;;;;28.50;18.10;;;6.30;99.90;;;;;;4995539;28;20447;-78
2022/12/25 07:49:13;;;;;;;32.27;18.73;;;6.30;99.90;;;;;;4994446;28;20455;-78
2022/12/25 07:51:41;;;;;;;28.83;17.53;;;6.40;99.90;;;;;;4995576;28;20496;-77
2022/12/25 07:54:10;;;;;;;31.90;19.43;;;6.40;99.90;;;;;;4995748;28;20544;-78
2022/12/25 07:56:38;;;;;;;30.83;18.40;;;6.50;99.90;;;;;;4994478;28;20492;-78
2022/12/25 07:59:07;;;;;;;23.80;17.80;;;6.50;99.90;;;;;;4995362;28;20963;-78
2022/12/25 08:01:36;;;;;;;27.23;16.80;;;6.50;99.90;;;;;;4994378;28;20529;-78
2022/12/25 08:04:06;;;;;;;54.63;32.80;;;6.50;99.90;;;;;;4994633;28;20493;-78
2022/12/25 08:06:35;;;;;;;30.87;20.03;;;6.60;99.90;;;;;;4996086;28;20440;-78
2022/12/25 08:09:06;;;;;;;29.93;20.03;;;6.60;99.90;;;;;;4996149;28;20811;-78
2022/12/25 08:11:34;;;;;;;28.07;17.97;;;6.60;99.90;;;;;;4996239;28;20464;-77
2022/12/25 08:14:05;;;;;;;27.83;19.30;;;6.70;99.90;;;;;;4994670;28;20484;-77
2022/12/25 08:16:38;;;;;;;26.80;18.90;;;6.70;99.90;;;;;;4995553;28;20882;-79
2022/12/25 08:19:07;;;;;;;30.20;19.40;;;6.80;99.90;;;;;;4995531;28;20466;-78
2022/12/25 08:21:35;;;;;;;32.57;19.70;;;6.80;99.90;;;;;;4993916;28;20964;-78
2022/12/25 08:24:03;;;;;;;35.87;24.33;;;6.80;99.90;;;;;;4994719;28;20472;-78
2022/12/25 08:26:31;;;;;;;28.80;19.53;;;6.80;99.90;;;;;;4994755;28;20481;-78
2022/12/25 08:29:00;;;;;;;35.63;20.73;;;6.90;99.90;;;;;;4996887;28;20521;-78
2022/12/25 08:31:30;;;;;;;25.47;17.00;;;6.90;99.90;;;;;;4998358;28;20446;-79
2022/12/25 08:34:02;;;;;;;32.93;23.10;;;7.00;99.90;;;;;;4997070;28;20488;-79
2022/12/25 08:36:30;;;;;;;33.87;23.37;;;7.00;99.90;;;;;;4997729;28;20468;-79
2022/12/25 08:39:00;;;;;;;26.60;19.00;;;7.00;99.90;;;;;;4997978;28;20500;-79
2022/12/25 08:41:30;;;;;;;28.53;19.07;;;7.10;99.90;;;;;;4999286;28;20448;-79
2022/12/25 08:43:59;;;;;;;31.10;19.47;;;7.10;99.90;;;;;;4997752;28;20456;-79
2022/12/25 08:46:27;;;;;;;42.93;30.67;;;7.10;99.90;;;;;;4998386;28;20494;-79
2022/12/25 08:48:56;;;;;;;38.53;21.03;;;7.10;99.90;;;;;;4998105;28;20452;-79
2022/12/25 08:51:26;;;;;;;26.70;20.83;;;7.20;99.90;;;;;;4999010;28;20484;-79
2022/12/25 08:53:59;;;;;;;30.67;19.57;;;7.20;99.90;;;;;;5003131;28;21068;-79
2022/12/25 08:56:28;;;;;;;31.20;18.50;;;7.20;99.90;;;;;;5007045;28;20477;-79
2022/12/25 08:58:59;;;;;;;44.40;29.97;;;7.30;99.90;;;;;;5009802;28;20477;-79
2022/12/25 09:01:28;;;;;;;44.33;32.60;;;7.30;99.90;;;;;;5008587;28;20433;-79
2022/12/25 09:03:56;;;;;;;32.00;23.40;;;7.30;99.90;;;;;;5009815;28;20455;-79
2022/12/25 09:06:26;;;;;;;34.40;20.00;;;7.40;99.90;;;;;;5007051;28;20478;-79
2022/12/25 09:08:55;;;;;;;31.93;17.77;;;7.40;99.90;;;;;;5006719;28;20460;-79
2022/12/25 09:11:23;;;;;;;21.93;17.30;;;7.40;99.90;;;;;;5005227;28;20453;-79
2022/12/25 09:13:52;;;;;;;28.97;18.33;;;7.40;99.90;;;;;;5009230;28;20491;-79
2022/12/25 09:16:22;;;;;;;31.00;20.37;;;7.50;99.90;;;;;;5012395;28;20442;-78
2022/12/25 09:18:50;;;;;;;32.10;19.80;;;7.50;99.90;;;;;;5012627;28;20440;-80
2022/12/25 09:21:19;;;;;;;28.87;18.10;;;7.50;99.90;;;;;;5014670;28;20474;-79
2022/12/25 09:23:49;;;;;;;29.13;18.03;;;7.50;99.90;;;;;;5014767;28;20447;-79
2022/12/25 09:26:23;;;;;;;29.97;17.80;;;7.60;99.90;;;;;;5009942;28;20478;-79
2022/12/25 09:28:55;;;;;;;31.83;17.00;;;7.50;99.90;;;;;;5009203;28;20452;-80
2022/12/25 09:31:23;;;;;;;32.53;22.03;;;7.60;99.90;;;;;;5014591;28;20536;-79
2022/12/25 09:33:55;;;;;;;38.73;23.77;;;7.60;99.90;;;;;;5012780;28;20469;-79
2022/12/25 09:36:24;;;;;;;32.17;21.10;;;7.60;99.90;;;;;;5008910;28;20509;-79
2022/12/25 09:38:54;;;;;;;30.73;18.40;;;7.60;99.90;;;;;;5008823;28;20503;-79
2022/12/25 09:41:29;;;;;;;30.73;18.50;;;7.70;99.90;;;;;;5006997;28;20527;-79
2022/12/25 09:44:02;;;;;;;30.77;19.27;;;7.70;99.90;;;;;;5008519;28;20449;-79
2022/12/25 09:46:53;;;;;;;25.37;17.20;;;7.70;99.90;;;;;;5003590;28;20568;-78
2022/12/25 09:49:37;;;;;;;30.83;20.40;;;7.70;99.90;;;;;;5008364;28;20462;-79
2022/12/25 09:52:09;;;;;;;30.83;22.10;;;7.70;99.90;;;;;;5006333;28;20447;-79
2022/12/25 09:54:49;;;;;;;35.13;20.90;;;7.70;99.90;;;;;;5006475;28;20484;-79
2022/12/25 09:57:17;;;;;;;27.60;20.30;;;7.70;99.90;;;;;;5001123;28;20929;-79
2022/12/25 09:59:46;;;;;;;31.53;18.73;;;7.70;99.90;;;;;;5000912;28;20978;-79
2022/12/25 10:02:46;;;;;;;26.50;17.50;;;7.70;99.90;;;;;;5000622;28;21020;-78
2022/12/25 10:05:42;;;;;;;24.90;17.83;;;7.80;99.90;;;;;;4999334;28;20470;-78
2022/12/25 10:08:20;;;;;;;30.17;19.43;;;7.80;99.90;;;;;;5001276;28;20435;-78
2022/12/25 10:10:57;;;;;;;28.93;20.67;;;7.80;99.90;;;;;;4999345;28;20448;-79
2022/12/25 10:13:52;;;;;;;26.53;19.33;;;7.80;99.90;;;;;;4999891;28;20488;-78
2022/12/25 10:16:30;;;;;;;30.30;17.30;;;7.80;99.90;;;;;;5000883;28;20493;-79
2022/12/25 10:19:15;;;;;;;28.77;18.20;;;7.80;99.90;;;;;;4999085;28;20546;-79
2022/12/25 10:21:43;;;;;;;29.30;17.77;;;7.80;99.90;;;;;;4998639;28;20852;-79
2022/12/25 10:24:24;;;;;;;26.47;17.87;;;7.90;99.90;;;;;;4999562;28;20453;-79
2022/12/25 10:26:56;;;;;;;24.13;18.17;;;7.90;99.90;;;;;;4998364;28;20935;-78
2022/12/25 10:29:24;;;;;;;30.67;21.60;;;7.80;99.90;;;;;;5003708;28;20443;-79
2022/12/25 10:31:55;;;;;;;23.97;18.40;;;7.90;99.90;;;;;;4997848;28;20456;-78
2022/12/25 10:34:24;;;;;;;24.00;18.40;;;7.90;99.90;;;;;;4996028;28;20558;-78
2022/12/25 10:36:52;;;;;;;23.87;17.50;;;7.90;99.90;;;;;;4997105;28;20933;-78
2022/12/25 10:39:23;;;;;;;29.07;17.73;;;7.90;99.90;;;;;;4995910;28;20498;-78
2022/12/25 10:42:11;;;;;;;29.90;18.17;;;7.90;99.90;;;;;;4997078;28;20441;-78
2022/12/25 10:44:39;;;;;;;29.30;22.10;;;8.00;99.90;;;;;;4995466;28;20564;-78
2022/12/25 10:47:07;;;;;;;27.10;19.60;;;8.00;99.90;;;;;;4996492;28;20969;-78
2022/12/25 10:49:38;;;;;;;21.63;17.97;;;8.00;99.90;;;;;;4996616;28;20897;-78
2022/12/25 10:52:19;;;;;;;25.20;18.43;;;8.00;99.90;;;;;;4996548;28;20429;-78
2022/12/25 10:54:48;;;;;;;25.87;18.53;;;8.00;99.90;;;;;;4995959;28;20485;-78
2022/12/25 10:57:20;;;;;;;23.47;17.13;;;8.00;99.90;;;;;;4998054;28;20463;-78
2022/12/25 10:59:50;;;;;;;28.03;18.80;;;8.10;99.90;;;;;;4998407;28;20483;-79
2022/12/25 11:02:23;;;;;;;23.37;16.90;;;8.10;99.90;;;;;;4998438;28;20459;-77
2022/12/25 11:05:00;;;;;;;22.93;17.20;;;8.10;99.90;;;;;;4997150;28;20472;-77
2022/12/25 11:07:28;;;;;;;19.50;16.50;;;8.10;99.90;;;;;;4996828;28;20539;-78
2022/12/25 11:09:59;;;;;;;20.93;17.00;;;8.00;99.90;;;;;;4998265;28;20538;-78
2022/12/25 11:12:36;;;;;;;24.40;17.53;;;8.10;99.90;;;;;;4999721;28;20441;-78
2022/12/25 11:15:26;;;;;;;28.87;23.47;;;8.10;99.90;;;;;;5003919;28;20490;-79
2022/12/25 11:17:55;;;;;;;49.10;32.80;;;8.10;99.90;;;;;;5011671;28;20438;-79
2022/12/25 11:20:24;;;;;;;27.03;18.67;;;8.10;99.90;;;;;;5008662;28;20456;-79
2022/12/25 11:22:52;;;;;;;25.93;17.83;;;8.20;99.90;;;;;;5007068;28;20535;-79
2022/12/25 11:25:23;;;;;;;25.23;18.20;;;8.10;99.90;;;;;;5002786;28;20475;-79
2022/12/25 11:27:59;;;;;;;22.53;17.20;;;8.20;99.90;;;;;;5001396;28;20467;-79
2022/12/25 11:30:29;;;;;;;24.77;19.40;;;8.20;99.90;;;;;;5002972;28;20453;-79
2022/12/25 11:33:00;;;;;;;25.67;17.93;;;8.20;99.90;;;;;;5003315;28;20435;-78
2022/12/25 11:35:32;;;;;;;25.33;16.40;;;8.20;99.90;;;;;;5005003;28;20485;-79
2022/12/25 11:38:00;;;;;;;23.73;18.27;;;8.20;99.90;;;;;;5005086;28;20490;-78
2022/12/25 11:40:35;;;;;;;23.87;20.03;;;8.20;99.90;;;;;;5004449;28;20455;-78
2022/12/25 11:43:10;;;;;;;18.93;15.67;;;8.20;99.90;;;;;;5004290;28;20591;-78
2022/12/25 11:45:45;;;;;;;20.00;15.93;;;8.20;99.90;;;;;;4998602;28;20460;-78
2022/12/25 11:48:18;;;;;;;22.73;16.70;;;8.30;99.90;;;;;;4999044;28;20452;-78
2022/12/25 11:50:49;;;;;;;23.03;17.70;;;8.30;99.90;;;;;;4998184;28;20453;-78
2022/12/25 11:53:22;;;;;;;21.00;16.80;;;8.30;99.90;;;;;;4998032;28;20450;-78
2022/12/25 11:55:54;;;;;;;20.63;15.97;;;8.30;99.90;;;;;;4997357;28;20484;-77
2022/12/25 11:58:28;;;;;;;21.13;17.90;;;8.30;99.90;;;;;;4998079;28;20444;-78
2022/12/25 12:01:00;;;;;;;23.60;18.07;;;8.30;99.90;;;;;;4997664;28;20526;-78
2022/12/25 12:03:31;;;;;;;26.13;20.30;;;8.30;99.90;;;;;;4998130;28;20448;-78
2022/12/25 12:06:04;;;;;;;27.27;22.43;;;8.40;99.90;;;;;;4997319;28;20982;-78
2022/12/25 12:08:35;;;;;;;26.83;21.87;;;8.40;99.90;;;;;;4997380;28;20484;-77
2022/12/25 12:11:18;;;;;;;27.53;18.77;;;8.40;99.90;;;;;;4998659;28;20436;-78
2022/12/25 12:14:21;;;;;;;23.67;17.83;;;8.40;99.90;;;;;;4994270;28;20459;-78
2022/12/25 12:16:50;;;;;;;21.27;17.00;;;8.40;99.90;;;;;;4997417;28;20518;-77
2022/12/25 12:19:26;;;;;;;19.63;17.53;;;8.40;99.90;;;;;;4994868;28;20883;-77
2022/12/25 12:21:57;;;;;;;25.20;17.77;;;8.50;99.90;;;;;;4996853;28;20520;-79
2022/12/25 12:24:29;;;;;;;21.27;17.73;;;8.40;99.90;;;;;;4997680;28;20417;-79
2022/12/25 12:27:03;;;;;;;25.73;17.70;;;8.40;99.90;;;;;;4994413;28;20495;-77
2022/12/25 12:29:40;;;;;;;20.50;17.10;;;8.40;99.90;;;;;;4995577;28;20806;-78
2022/12/25 12:32:39;;;;;;;23.50;18.03;;;8.50;99.90;;;;;;4995741;28;20495;-79
2022/12/25 12:35:14;;;;;;;20.80;17.73;;;8.50;99.90;;;;;;4996391;28;21049;-78
2022/12/25 12:37:44;;;;;;;22.63;18.70;;;8.50;99.90;;;;;;4996622;28;20447;-78
2022/12/25 12:40:31;;;;;;;21.93;17.80;;;8.50;99.90;;;;;;4997738;28;20437;-78
2022/12/25 12:43:00;;;;;;;23.57;17.47;;;8.50;99.90;;;;;;4996195;28;20479;-78
2022/12/25 12:45:33;;;;;;;19.40;17.37;;;8.50;99.90;;;;;;4995608;28;20878;-78
2022/12/25 12:48:02;;;;;;;19.67;17.37;;;8.50;99.90;;;;;;4995607;28;20956;-77
2022/12/25 12:50:34;;;;;;;21.13;17.10;;;8.50;99.90;;;;;;4996493;28;20461;-78
2022/12/25 12:53:23;;;;;;;21.80;15.87;;;8.50;99.90;;;;;;4995958;28;20474;-78
2022/12/25 12:55:52;;;;;;;21.73;15.57;;;8.50;99.90;;;;;;4999519;28;20487;-79
2022/12/25 12:58:32;;;;;;;18.70;14.50;;;8.50;99.90;;;;;;4998772;28;20466;-79
2022/12/25 13:01:11;;;;;;;19.87;15.80;;;8.50;99.90;;;;;;5001474;28;20535;-79
2022/12/25 13:04:01;;;;;;;21.90;16.37;;;8.50;99.90;;;;;;4999602;28;20573;-77
2022/12/25 13:06:34;;;;;;;18.67;13.83;;;8.50;99.90;;;;;;4996923;28;20512;-79
2022/12/25 13:09:09;;;;;;;17.70;14.90;;;8.50;99.90;;;;;;4998369;28;20472;-79
2022/12/25 13:11:41;;;;;;;19.67;15.00;;;8.50;99.90;;;;;;4998851;28;20858;-79
2022/12/25 13:14:15;;;;;;;19.57;15.20;;;8.40;99.90;;;;;;5001602;28;20976;-77
2022/12/25 13:16:47;;;;;;;21.53;19.03;;;8.50;99.90;;;;;;4999636;28;20494;-77
2022/12/25 13:19:20;;;;;;;20.33;18.23;;;8.50;99.90;;;;;;5001221;28;20423;-79
2022/12/25 13:21:54;;;;;;;19.63;17.60;;;8.50;99.90;;;;;;5001873;28;20445;-78
2022/12/25 13:24:24;;;;;;;24.33;18.80;;;8.50;99.90;;;;;;4999443;28;20540;-78
2022/12/25 13:26:53;;;;;;;29.87;24.90;;;8.50;99.90;;;;;;4999678;28;20880;-78
2022/12/25 13:29:30;;;;;;;21.93;19.53;;;8.50;99.90;;;;;;4999852;28;20456;-78
2022/12/25 13:32:01;;;;;;;19.63;17.47;;;8.50;99.90;;;;;;5000479;28;20447;-78
2022/12/25 13:34:32;;;;;;;18.80;16.30;;;8.50;99.90;;;;;;4999590;28;20446;-78
2022/12/25 13:37:07;;;;;;;19.10;15.57;;;8.50;99.90;;;;;;4996813;28;20555;-77
2022/12/25 13:39:38;;;;;;;22.97;16.20;;;8.50;99.90;;;;;;4996226;28;20458;-76
2022/12/25 13:42:08;;;;;;;20.73;18.37;;;8.50;99.90;;;;;;5001204;28;20539;-76
2022/12/25 13:44:47;;;;;;;20.00;17.90;;;8.50;99.90;;;;;;5002006;28;20848;-78
2022/12/25 13:47:20;;;;;;;20.87;17.37;;;8.50;99.90;;;;;;5002391;28;20442;-78
2022/12/25 13:49:49;;;;;;;20.00;17.90;;;8.50;99.90;;;;;;5000200;28;20475;-78
2022/12/25 13:52:20;;;;;;;22.70;17.77;;;8.50;99.90;;;;;;4999366;28;20535;-77
2022/12/25 13:55:00;;;;;;;22.40;17.07;;;8.50;99.90;;;;;;4998692;28;20506;-77
2022/12/25 13:57:34;;;;;;;20.47;17.83;;;8.50;99.90;;;;;;4998789;28;20461;-77
2022/12/25 14:00:04;;;;;;;21.07;18.07;;;8.50;99.90;;;;;;4998606;28;20504;-77
2022/12/25 14:02:37;;;;;;;23.53;18.50;;;8.50;99.90;;;;;;5000621;28;20495;-78
2022/12/25 14:05:23;;;;;;;20.03;17.80;;;8.50;99.90;;;;;;5000324;28;20464;-77
2022/12/25 14:07:52;;;;;;;20.80;18.60;;;8.50;99.90;;;;;;5000201;28;20460;-77
2022/12/25 14:10:22;;;;;;;20.60;18.47;;;8.50;99.90;;;;;;4999639;28;20448;-77
2022/12/25 14:12:51;;;;;;;23.70;21.20;;;8.50;99.90;;;;;;5000660;28;20527;-79
2022/12/25 14:15:22;;;;;;;24.80;22.10;;;8.40;99.90;;;;;;5002317;28;20465;-79
2022/12/25 14:17:52;;;;;;;29.70;25.90;;;8.50;99.90;;;;;;5006468;28;20417;-79
2022/12/25 14:20:25;;;;;;;30.20;24.47;;;8.50;99.90;;;;;;5001775;28;20451;-78
2022/12/25 14:22:57;;;;;;;25.70;21.63;;;8.40;99.90;;;;;;5000395;28;20437;-79
2022/12/25 14:25:30;;;;;;;23.93;20.80;;;8.50;99.90;;;;;;5002122;28;20481;-79
2022/12/25 14:27:59;;;;;;;23.23;19.60;;;8.40;99.90;;;;;;5002211;28;20531;-79
2022/12/25 14:30:29;;;;;;;21.70;19.50;;;8.50;99.90;;;;;;5001825;28;20488;-79
2022/12/25 14:33:01;;;;;;;25.67;21.23;;;8.40;99.90;;;;;;5004202;28;20996;-78
2022/12/25 14:35:30;;;;;;;22.03;19.70;;;8.50;99.90;;;;;;5002403;28;20475;-77
2022/12/25 14:38:00;;;;;;;20.80;18.80;;;8.50;99.90;;;;;;5003046;28;20468;-78
2022/12/25 14:40:30;;;;;;;22.43;19.70;;;8.50;99.90;;;;;;5003271;28;20452;-78
2022/12/25 14:43:01;;;;;;;21.93;19.80;;;8.40;99.90;;;;;;5003863;28;20425;-77
2022/12/25 14:45:32;;;;;;;24.87;20.60;;;8.40;99.90;;;;;;5000863;28;20498;-77